Time;durP1;ratioP1;P1;durP2;ratioP2;P2;SDS_P1;SDS_P2;PMS_P1;PMS_P2;Temp;Humidity;BMP_temperature;BMP_pressure;BME280_temperature;BME280_humidity;BME280_pressure;Samples;Min_cycle;Max_cycle;Signal;HPM_P1;HPM_P2
2023/06/24 00:02:15;;;;;;;;;;;17.30;99.90;;;;;;5104588;28;19991;-70
2023/06/24 00:04:41;;;;;;;;;;;17.30;99.90;;;;;;5105130;28;19983;-70
2023/06/24 00:07:08;;;;;;;;;;;17.30;99.90;;;;;;5104628;28;19983;-71
2023/06/24 00:09:35;;;;;;;;;;;17.30;99.90;;;;;;5103699;28;19920;-69
2023/06/24 00:12:02;;;;;;;;;;;17.30;99.90;;;;;;5104186;28;19987;-69
2023/06/24 00:14:29;;;;;;;;;;;17.30;99.90;;;;;;5104584;28;19991;-69
2023/06/24 00:16:56;;;;;;;;;;;17.30;99.90;;;;;;5104383;28;19927;-69
2023/06/24 00:19:25;;;;;;;;;;;17.30;99.90;;;;;;5104894;28;19987;-69
2023/06/24 00:21:52;;;;;;;;;;;17.30;99.90;;;;;;5103804;28;19995;-71
2023/06/24 00:24:19;;;;;;;;;;;17.20;99.90;;;;;;5104377;28;19926;-69
2023/06/24 00:26:46;;;;;;;;;;;17.20;99.90;;;;;;5104086;28;20093;-69
2023/06/24 00:29:13;;;;;;;;;;;17.20;99.90;;;;;;5104810;28;19926;-69
2023/06/24 00:31:40;;;;;;;;;;;17.20;99.90;;;;;;5103739;28;19920;-70
2023/06/24 00:34:06;;;;;;;;;;;17.20;99.90;;;;;;5104667;28;19991;-69
2023/06/24 00:36:35;;;;;;;;;;;17.20;99.90;;;;;;5104122;28;19999;-70
2023/06/24 00:39:03;;;;;;;;;;;17.10;99.90;;;;;;5104637;28;20260;-69
2023/06/24 00:41:30;;;;;;;;;;;17.10;99.90;;;;;;5103507;28;19943;-69
2023/06/24 00:43:58;;;;;;;;;;;17.00;99.90;;;;;;5104178;28;19944;-69
2023/06/24 00:46:26;;;;;;;;;;;17.00;99.90;;;;;;5104285;28;19942;-70
2023/06/24 00:48:53;;;;;;;;;;;17.00;99.90;;;;;;5104481;28;20085;-70
2023/06/24 00:51:21;;;;;;;;;;;17.00;99.90;;;;;;5103739;28;19920;-69
2023/06/24 00:53:49;;;;;;;;;;;16.90;99.90;;;;;;5104364;28;20107;-69
2023/06/24 00:56:18;;;;;;;;;;;16.80;99.90;;;;;;5104136;28;19920;-70
2023/06/24 00:58:47;;;;;;;;;;;16.80;99.90;;;;;;5104316;28;19924;-69
2023/06/24 01:01:14;;;;;;;;;;;16.80;99.90;;;;;;5103100;28;19927;-69
2023/06/24 01:03:41;;;;;;;;;;;16.70;99.90;;;;;;5104195;28;19943;-69
2023/06/24 01:06:08;;;;;;;;;;;16.70;99.90;;;;;;5103879;28;20021;-70
2023/06/24 01:08:35;;;;;;;;;;;16.60;99.90;;;;;;5104026;28;19920;-69
2023/06/24 01:11:03;;;;;;;;;;;16.60;99.90;;;;;;5100919;28;19955;-69
2023/06/24 01:13:30;;;;;;;;;;;16.60;99.90;;;;;;5083829;28;19921;-69
2023/06/24 01:15:59;;;;;;;;;;;16.50;99.90;;;;;;5096760;28;20311;-69
2023/06/24 01:18:27;;;;;;;;;;;16.50;99.90;;;;;;5103845;28;19926;-69
2023/06/24 01:20:57;;;;;;;;;;;16.40;99.90;;;;;;5102452;28;19926;-69
2023/06/24 01:23:52;;;;;;;;;;;16.40;99.90;;;;;;5103787;28;19920;-69
2023/06/24 01:26:42;;;;;;;;;;;16.30;99.90;;;;;;5101669;28;19920;-69
2023/06/24 01:29:21;;;;;;;;;;;16.30;99.90;;;;;;5099435;28;19927;-69
2023/06/24 01:31:53;;;;;;;;;;;16.20;99.90;;;;;;5102169;28;20393;-69
2023/06/24 01:34:23;;;;;;;;;;;16.10;99.90;;;;;;5103716;28;19991;-69
2023/06/24 01:36:52;;;;;;;;;;;16.10;99.90;;;;;;5103471;28;19920;-69
2023/06/24 01:39:19;;;;;;;;;;;16.10;99.90;;;;;;5103794;28;19920;-70
2023/06/24 01:41:49;;;;;;;;;;;16.00;99.90;;;;;;5102996;28;19920;-70
2023/06/24 01:44:17;;;;;;;;;;;16.00;99.90;;;;;;5103678;28;19995;-70
2023/06/24 01:46:45;;;;;;;;;;;15.90;99.90;;;;;;5103526;28;19920;-69
2023/06/24 01:49:14;;;;;;;;;;;15.90;99.90;;;;;;5103329;28;20208;-69
2023/06/24 01:51:42;;;;;;;;;;;15.80;99.90;;;;;;5102923;28;19919;-70
2023/06/24 01:54:18;;;;;;;;;;;15.80;99.90;;;;;;5103261;28;20259;-70
2023/06/24 01:56:47;;;;;;;;;;;15.70;99.90;;;;;;5103008;28;19920;-69
2023/06/24 01:59:15;;;;;;;;;;;15.70;99.90;;;;;;5103517;28;19924;-69
2023/06/24 02:01:42;;;;;;;;;;;15.60;99.90;;;;;;5102505;28;20211;-69
2023/06/24 02:04:09;;;;;;;;;;;15.60;99.90;;;;;;5103451;28;19942;-69
2023/06/24 02:06:38;;;;;;;;;;;15.60;99.90;;;;;;5103248;28;19920;-70
2023/06/24 02:09:06;;;;;;;;;;;15.50;99.90;;;;;;5100393;28;20253;-70
2023/06/24 02:11:33;;;;;;;;;;;15.40;99.90;;;;;;5102516;28;20231;-70
2023/06/24 02:14:02;;;;;;;;;;;15.40;99.90;;;;;;5103097;28;19920;-69
2023/06/24 02:16:29;;;;;;;;;;;15.30;99.90;;;;;;5102845;28;20134;-70
2023/06/24 02:18:56;;;;;;;;;;;15.20;99.90;;;;;;5103015;28;20278;-69
2023/06/24 02:21:24;;;;;;;;;;;15.20;99.90;;;;;;5102407;28;19952;-69
2023/06/24 02:23:53;;;;;;;;;;;15.20;99.90;;;;;;5102922;28;19920;-69
2023/06/24 02:26:21;;;;;;;;;;;15.10;99.90;;;;;;5101016;28;19983;-69
2023/06/24 02:28:50;;;;;;;;;;;15.10;99.90;;;;;;5103067;28;19920;-70
2023/06/24 02:31:17;;;;;;;;;;;15.10;99.90;;;;;;5102309;28;19920;-69
2023/06/24 02:33:43;;;;;;;;;;;15.00;99.90;;;;;;5104852;28;19920;-69
2023/06/24 02:36:11;;;;;;;;;;;15.10;99.90;;;;;;5106478;28;20230;-70
2023/06/24 02:38:37;;;;;;;;;;;15.00;99.90;;;;;;5106853;28;20163;-69
2023/06/24 02:41:05;;;;;;;;;;;14.90;99.90;;;;;;5105792;28;19979;-69
2023/06/24 02:43:35;;;;;;;;;;;14.90;99.90;;;;;;5106476;28;19958;-70
2023/06/24 02:46:02;;;;;;;;;;;14.80;99.90;;;;;;5106554;28;19920;-69
2023/06/24 02:48:30;;;;;;;;;;;14.80;99.90;;;;;;5106653;28;19919;-68
2023/06/24 02:50:58;;;;;;;;;;;14.80;99.90;;;;;;5105957;28;19920;-69
2023/06/24 02:53:25;;;;;;;;;;;14.70;99.90;;;;;;5106535;28;19920;-69
2023/06/24 02:55:52;;;;;;;;;;;14.70;99.90;;;;;;5106395;28;19979;-68
2023/06/24 02:58:20;;;;;;;;;;;14.70;99.90;;;;;;5106126;28;19991;-69
2023/06/24 03:00:49;;;;;;;;;;;14.70;99.90;;;;;;5105800;28;19926;-69
2023/06/24 03:03:16;;;;;;;;;;;14.60;99.90;;;;;;5106066;28;19967;-69
2023/06/24 03:05:44;;;;;;;;;;;14.60;99.90;;;;;;5106226;28;19983;-69
2023/06/24 03:08:11;;;;;;;;;;;14.60;99.90;;;;;;5106400;28;19924;-70
2023/06/24 03:10:38;;;;;;;;;;;14.60;99.90;;;;;;5105598;28;19920;-69
2023/06/24 03:13:04;;;;;;;;;;;14.50;99.90;;;;;;5106028;28;19992;-69
2023/06/24 03:15:32;;;;;;;;;;;14.50;99.90;;;;;;5105723;28;19987;-69
2023/06/24 03:17:59;;;;;;;;;;;14.40;99.90;;;;;;5105744;28;19920;-69
2023/06/24 03:20:26;;;;;;;;;;;14.50;99.90;;;;;;5105031;28;19920;-69
2023/06/24 03:22:54;;;;;;;;;;;14.40;99.90;;;;;;5105841;28;20204;-69
2023/06/24 03:25:21;;;;;;;;;;;14.40;99.90;;;;;;5105688;28;19920;-70
2023/06/24 03:27:47;;;;;;;;;;;14.30;99.90;;;;;;5105860;28;19970;-70
2023/06/24 03:30:14;;;;;;;;;;;14.40;99.90;;;;;;5104924;28;19987;-70
2023/06/24 03:32:46;;;;;;;;;;;14.30;99.90;;;;;;5105800;28;19977;-69
2023/06/24 03:35:13;;;;;;;;;;;14.30;99.90;;;;;;5105869;28;19970;-69
2023/06/24 03:37:40;;;;;;;;;;;14.30;99.90;;;;;;5105338;28;19921;-69
2023/06/24 03:40:07;;;;;;;;;;;14.30;99.90;;;;;;5105214;28;19962;-69
2023/06/24 03:42:34;;;;;;;;;;;14.20;99.90;;;;;;5105136;28;20225;-69
2023/06/24 03:45:01;;;;;;;;;;;14.20;99.90;;;;;;5104958;28;19962;-69
2023/06/24 03:47:27;;;;;;;;;;;14.10;99.90;;;;;;5105140;28;19955;-69
2023/06/24 03:49:57;;;;;;;;;;;14.00;99.90;;;;;;5102749;28;19920;-69
2023/06/24 03:52:24;;;;;;;;;;;13.90;99.90;;;;;;5103482;28;19983;-69
2023/06/24 03:54:51;;;;;;;;;;;13.90;99.90;;;;;;5105463;28;19926;-69
2023/06/24 03:57:17;;;;;;;;;;;13.80;99.90;;;;;;5104854;28;19920;-69
2023/06/24 03:59:44;;;;;;;;;;;13.80;99.90;;;;;;5105009;28;19982;-69
2023/06/24 04:02:10;;;;;;;;;;;13.80;99.90;;;;;;5104476;28;19996;-69
2023/06/24 04:04:37;;;;;;;;;;;13.80;99.90;;;;;;5105054;28;20255;-69
2023/06/24 04:07:06;;;;;;;;;;;13.80;99.90;;;;;;5104147;28;19979;-69
2023/06/24 04:09:33;;;;;;;;;;;13.80;99.90;;;;;;5104797;28;20208;-71
2023/06/24 04:12:00;;;;;;;;;;;13.90;99.90;;;;;;5104056;28;19935;-69
2023/06/24 04:14:27;;;;;;;;;;;13.80;99.90;;;;;;5104773;28;19975;-69
2023/06/24 04:16:53;;;;;;;;;;;13.90;99.90;;;;;;5104696;28;19920;-69
2023/06/24 04:19:20;;;;;;;;;;;13.90;99.90;;;;;;5105044;28;20263;-69
2023/06/24 04:21:47;;;;;;;;;;;14.00;99.90;;;;;;5089796;28;19927;-69
2023/06/24 04:24:15;;;;;;;;;;;14.00;99.90;;;;;;5084558;28;20169;-69
2023/06/24 04:26:42;;;;;;;;;;;14.10;99.90;;;;;;5092021;28;19920;-69
2023/06/24 04:29:08;;;;;;;;;;;14.10;99.90;;;;;;5104762;28;19955;-69
2023/06/24 04:31:35;;;;;;;;;;;14.20;99.90;;;;;;5104000;28;19982;-69
2023/06/24 04:34:01;;;;;;;;;;;14.20;99.90;;;;;;5094780;28;20305;-69
2023/06/24 04:36:29;;;;;;;;;;;14.30;99.90;;;;;;5095976;28;19983;-69
2023/06/24 04:38:56;;;;;;;;;;;14.40;99.90;;;;;;5090910;28;19988;-70
2023/06/24 04:41:25;;;;;;;;;;;14.50;99.90;;;;;;5083595;28;19921;-69
2023/06/24 04:43:52;;;;;;;;;;;14.50;99.90;;;;;;5084280;28;20147;-70
2023/06/24 04:46:18;;;;;;;;;;;14.60;99.90;;;;;;5083883;28;19983;-69
2023/06/24 04:48:45;;;;;;;;;;;14.60;99.90;;;;;;5098065;28;19920;-69
2023/06/24 04:51:11;;;;;;;;;;;14.60;99.90;;;;;;5103683;28;20251;-69
2023/06/24 04:53:38;;;;;;;;;;;14.60;99.90;;;;;;5103941;28;19958;-70
2023/06/24 04:56:05;;;;;;;;;;;14.70;99.90;;;;;;5103290;28;20283;-69
2023/06/24 04:58:33;;;;;;;;;;;14.70;99.90;;;;;;5097755;28;19955;-69
2023/06/24 05:00:59;;;;;;;;;;;14.90;99.90;;;;;;5101106;28;19951;-69
2023/06/24 05:03:26;;;;;;;;;;;14.90;99.90;;;;;;5104313;28;19926;-70
2023/06/24 05:05:53;;;;;;;;;;;15.00;99.90;;;;;;5103796;28;19987;-69
2023/06/24 05:08:19;;;;;;;;;;;15.10;99.90;;;;;;5104147;28;19947;-69
2023/06/24 05:10:46;;;;;;;;;;;15.10;99.90;;;;;;5102938;28;19983;-70
2023/06/24 05:13:12;;;;;;;;;;;15.20;99.90;;;;;;5104114;28;19983;-68
2023/06/24 05:15:40;;;;;;;;;;;15.30;99.90;;;;;;5103801;28;19920;-69
2023/06/24 05:18:07;;;;;;;;;;;15.50;99.90;;;;;;5104010;28;19995;-69
2023/06/24 05:20:34;;;;;;;;;;;15.60;99.90;;;;;;5103304;28;20129;-69
2023/06/24 05:23:00;;;;;;;;;;;15.70;99.90;;;;;;5103832;28;19983;-68
2023/06/24 05:25:27;;;;;;;;;;;15.90;99.90;;;;;;5103304;28;20347;-70
2023/06/24 05:27:54;;;;;;;;;;;16.00;99.90;;;;;;5103611;28;19987;-69
2023/06/24 05:30:20;;;;;;;;;;;16.10;99.90;;;;;;5103113;28;19979;-69
2023/06/24 05:32:48;;;;;;;;;;;16.20;99.90;;;;;;5103433;28;19964;-68
2023/06/24 05:35:15;;;;;;;;;;;16.30;99.90;;;;;;5103543;28;19983;-69
2023/06/24 05:37:42;;;;;;;;;;;16.50;99.90;;;;;;5103655;28;19955;-69
2023/06/24 05:40:09;;;;;;;;;;;16.60;99.90;;;;;;5103287;28;19962;-68
2023/06/24 05:42:36;;;;;;;;;;;16.70;99.90;;;;;;5103253;28;19923;-69
2023/06/24 05:45:02;;;;;;;;;;;16.80;99.90;;;;;;5103469;28;20114;-69
2023/06/24 05:47:29;;;;;;;;;;;16.90;99.90;;;;;;5103206;28;19979;-69
2023/06/24 05:49:57;;;;;;;;;;;17.00;99.90;;;;;;5103642;28;19979;-68
2023/06/24 05:52:23;;;;;;;;;;;17.10;99.90;;;;;;5102551;28;20275;-68
2023/06/24 05:54:50;;;;;;;;;;;17.20;99.90;;;;;;5103480;28;19987;-68
2023/06/24 05:57:17;;;;;;;;;;;17.30;99.90;;;;;;5103300;28;19920;-69
2023/06/24 05:59:43;;;;;;;;;;;17.40;99.90;;;;;;5103507;28;19926;-69
2023/06/24 06:02:10;;;;;;;;;;;17.60;99.90;;;;;;5102566;28;19983;-69
2023/06/24 06:04:37;;;;;;;;;;;17.60;99.90;;;;;;5103221;28;19979;-69
2023/06/24 06:07:05;;;;;;;;;;;17.70;99.90;;;;;;5103927;28;20157;-69
2023/06/24 06:09:32;;;;;;;;;;;17.80;99.90;;;;;;5107189;28;20203;-69
2023/06/24 06:11:58;;;;;;;;;;;17.90;99.90;;;;;;5106527;28;20203;-68
2023/06/24 06:14:25;;;;;;;;;;;18.00;99.90;;;;;;5107086;28;19927;-69
2023/06/24 06:16:51;;;;;;;;;;;18.10;99.90;;;;;;5106862;28;20075;-70
2023/06/24 06:19:18;;;;;;;;;;;18.10;99.90;;;;;;5102810;28;20275;-71
2023/06/24 06:21:45;;;;;;;;;;;18.20;99.90;;;;;;5086259;28;19958;-70
2023/06/24 06:24:13;;;;;;;;;;;18.30;99.90;;;;;;5086067;28;19920;-70
2023/06/24 06:26:42;;;;;;;;;;;18.40;99.90;;;;;;5085471;28;19927;-69
2023/06/24 06:29:08;;;;;;;;;;;18.40;99.90;;;;;;5086501;28;20286;-69
2023/06/24 06:31:35;;;;;;;;;;;18.50;99.90;;;;;;5086030;28;19970;-69
2023/06/24 06:34:02;;;;;;;;;;;18.60;99.90;;;;;;5086734;28;19920;-69
2023/06/24 06:36:35;;;;;;;;;;;18.60;99.90;;;;;;5093235;28;19920;-69
2023/06/24 06:39:01;;;;;;;;;;;18.70;99.90;;;;;;5106551;28;19920;-68
2023/06/24 06:41:29;;;;;;;;;;;18.70;99.90;;;;;;5105939;28;19995;-68
2023/06/24 06:43:56;;;;;;;;;;;18.80;99.90;;;;;;5106585;28;19991;-69
2023/06/24 06:46:23;;;;;;;;;;;18.80;99.90;;;;;;5106471;28;19970;-69
2023/06/24 06:48:49;;;;;;;;;;;18.90;99.90;;;;;;5106443;28;20171;-69
2023/06/24 06:51:18;;;;;;;;;;;18.90;99.90;;;;;;5105858;28;19986;-70
2023/06/24 06:53:45;;;;;;;;;;;18.90;99.90;;;;;;5106599;28;19920;-69
2023/06/24 06:56:17;;;;;;;;;;;19.00;99.90;;;;;;5106206;28;19951;-70
2023/06/24 06:58:45;;;;;;;;;;;19.10;99.90;;;;;;5106084;28;20208;-69
2023/06/24 07:01:11;;;;;;;;;;;19.10;99.90;;;;;;5105765;28;19920;-69
2023/06/24 07:03:38;;;;;;;;;;;19.10;99.90;;;;;;5106439;28;19983;-68
2023/06/24 07:06:04;;;;;;;;;;;19.20;99.90;;;;;;5106043;28;19991;-69
2023/06/24 07:08:31;;;;;;;;;;;19.20;99.90;;;;;;5106151;28;19927;-69
2023/06/24 07:10:58;;;;;;;;;;;19.30;99.90;;;;;;5105505;28;19983;-69
2023/06/24 07:13:27;;;;;;;;;;;19.30;99.90;;;;;;5103653;28;19920;-69
2023/06/24 07:15:56;;;;;;;;;;;19.40;99.90;;;;;;5103015;28;19926;-70
2023/06/24 07:18:22;;;;;;;;;;;19.40;99.90;;;;;;5105372;28;19926;-70
2023/06/24 07:20:49;;;;;;;;;;;19.50;99.90;;;;;;5104406;28;19962;-70
2023/06/24 07:23:15;;;;;;;;;;;19.50;99.90;;;;;;5105083;28;19920;-69
2023/06/24 07:25:42;;;;;;;;;;;19.50;99.90;;;;;;5100090;28;19939;-68
2023/06/24 07:28:10;;;;;;;;;;;19.60;99.90;;;;;;5103597;28;20226;-68
2023/06/24 07:30:36;;;;;;;;;;;19.70;99.90;;;;;;5104552;28;20000;-67
2023/06/24 07:33:05;;;;;;;;;;;19.80;99.90;;;;;;5105654;28;19979;-67
2023/06/24 07:35:32;;;;;;;;;;;19.90;99.90;;;;;;5089393;28;19943;-67
2023/06/24 07:37:58;;;;;;;;;;;20.00;99.90;;;;;;5102410;28;20270;-67
2023/06/24 07:40:25;;;;;;;;;;;20.00;99.90;;;;;;5104516;28;19982;-69
2023/06/24 07:42:51;;;;;;;;;;;20.00;99.90;;;;;;5105528;28;19924;-70
2023/06/24 07:45:18;;;;;;;;;;;20.00;99.90;;;;;;5105222;28;19983;-70
2023/06/24 07:47:45;;;;;;;;;;;20.10;99.90;;;;;;5105343;28;19927;-69
2023/06/24 07:50:13;;;;;;;;;;;20.20;99.90;;;;;;5102958;28;19921;-67
2023/06/24 07:52:39;;;;;;;;;;;20.20;99.90;;;;;;5084019;28;19920;-69
2023/06/24 07:55:06;;;;;;;;;;;20.30;99.90;;;;;;5084665;28;19951;-69
2023/06/24 07:57:33;;;;;;;;;;;20.30;99.90;;;;;;5085039;28;19921;-69
2023/06/24 08:00:00;;;;;;;;;;;20.30;99.90;;;;;;5084943;28;19925;-69
2023/06/24 08:02:27;;;;;;;;;;;20.30;99.90;;;;;;5084941;28;19920;-69
2023/06/24 08:04:53;;;;;;;;;;;20.40;99.90;;;;;;5084558;28;20246;-70
2023/06/24 08:07:21;;;;;;;;;;;20.40;99.90;;;;;;5084854;28;19959;-69
2023/06/24 08:09:48;;;;;;;;;;;20.50;99.90;;;;;;5093025;28;20172;-69
2023/06/24 08:12:15;;;;;;;;;;;20.60;99.90;;;;;;5104412;28;19927;-69
2023/06/24 08:14:43;;;;;;;;;;;20.60;99.90;;;;;;5102282;28;19920;-69
2023/06/24 08:17:10;;;;;;;;;;;20.60;99.90;;;;;;5124650;28;19986;-69
2023/06/24 08:19:37;;;;;;;;;;;20.60;99.90;;;;;;5125175;28;20019;-71
2023/06/24 08:22:04;;;;;;;;;;;20.60;99.90;;;;;;5106626;28;19928;-69
2023/06/24 08:24:32;;;;;;;;;;;20.60;99.90;;;;;;5104360;28;20214;-70
2023/06/24 08:26:58;;;;;;;;;;;20.70;99.90;;;;;;5104197;28;19958;-68
2023/06/24 08:29:25;;;;;;;;;;;20.80;99.90;;;;;;5104722;28;19952;-70
2023/06/24 08:31:51;;;;;;;;;;;20.90;99.90;;;;;;5102550;28;20168;-70
2023/06/24 08:34:21;;;;;;;;;;;20.90;99.90;;;;;;5102813;28;19987;-69
2023/06/24 08:36:48;;;;;;;;;;;20.80;99.90;;;;;;5103546;28;19991;-69
2023/06/24 08:39:16;;;;;;;;;;;20.90;99.90;;;;;;5103059;28;20208;-69
2023/06/24 08:41:44;;;;;;;;;;;21.00;99.90;;;;;;5103821;28;20093;-69
2023/06/24 08:44:11;;;;;;;;;;;21.10;99.90;;;;;;5104547;28;19982;-69
2023/06/24 08:46:38;;;;;;;;;;;21.30;99.90;;;;;;5104332;28;19991;-69
2023/06/24 08:49:11;;;;;;;;;;;21.40;99.90;;;;;;5104082;28;20279;-69
2023/06/24 08:51:40;;;;;;;;;;;21.50;99.90;;;;;;5103650;28;19920;-70
2023/06/24 08:54:07;;;;;;;;;;;21.60;99.90;;;;;;5107241;28;19935;-69
2023/06/24 08:56:34;;;;;;;;;;;21.60;99.90;;;;;;5107761;28;19920;-69
2023/06/24 08:59:02;;;;;;;;;;;21.50;99.90;;;;;;5102204;28;20169;-69
2023/06/24 09:01:30;;;;;;;;;;;21.50;99.90;;;;;;5102718;28;19927;-70
2023/06/24 09:03:56;;;;;;;;;;;21.50;99.90;;;;;;5103017;28;19920;-68
2023/06/24 09:06:23;;;;;;;;;;;21.50;99.90;;;;;;5103270;28;19951;-69
2023/06/24 09:08:53;;;;;;;;;;;21.60;99.90;;;;;;5103999;28;20110;-69
2023/06/24 09:11:22;;;;;;;;;;;21.70;99.90;;;;;;5103130;28;20218;-69
2023/06/24 09:13:55;;;;;;;;;;;21.90;99.90;;;;;;5101321;28;19987;-69
2023/06/24 09:16:23;;;;;;;;;;;22.00;99.90;;;;;;5103478;28;19953;-69
2023/06/24 09:18:50;;;;;;;;;;;22.00;99.90;;;;;;5103838;28;19920;-69
2023/06/24 09:21:22;;;;;;;;;;;22.00;99.90;;;;;;5103225;28;19920;-69
2023/06/24 09:23:51;;;;;;;;;;;22.20;99.90;;;;;;5103817;28;19958;-69
2023/06/24 09:26:18;;;;;;;;;;;22.30;99.90;;;;;;5103286;28;20215;-69
2023/06/24 09:28:48;;;;;;;;;;;22.40;99.90;;;;;;5103344;28;19951;-69
2023/06/24 09:31:14;;;;;;;;;;;22.60;99.90;;;;;;5103072;28;19920;-69
2023/06/24 09:33:42;;;;;;;;;;;22.70;99.90;;;;;;5103716;28;20000;-69
2023/06/24 09:36:12;;;;;;;;;;;22.70;99.90;;;;;;5100507;28;19920;-68
2023/06/24 09:38:40;;;;;;;;;;;22.80;99.90;;;;;;5103526;28;19980;-68
2023/06/24 09:41:09;;;;;;;;;;;22.90;99.90;;;;;;5102872;28;19978;-69
2023/06/24 09:43:36;;;;;;;;;;;23.00;99.90;;;;;;5103030;28;19983;-69
2023/06/24 09:46:04;;;;;;;;;;;23.10;99.90;;;;;;5089974;28;19919;-69
2023/06/24 09:48:30;;;;;;;;;;;23.20;99.90;;;;;;5102921;28;19920;-68
2023/06/24 09:51:00;;;;;;;;;;;23.30;99.90;;;;;;5082874;28;19952;-68
2023/06/24 09:53:27;;;;;;;;;;;23.40;99.90;;;;;;5101337;28;19920;-69
2023/06/24 09:55:54;;;;;;;;;;;23.40;99.90;;;;;;5102765;28;19920;-69
2023/06/24 09:58:21;;;;;;;;;;;23.30;99.90;;;;;;5085589;28;20313;-69
2023/06/24 10:00:48;;;;;;;;;;;23.30;99.90;;;;;;5083651;28;20227;-69
2023/06/24 10:03:14;;;;;;;;;;;23.30;99.90;;;;;;5094977;28;19995;-69
2023/06/24 10:05:43;;;;;;;;;;;23.20;99.90;;;;;;5088101;28;19982;-70
2023/06/24 10:08:14;;;;;;;;;;;23.20;99.90;;;;;;5100976;28;19934;-69
2023/06/24 10:10:41;;;;;;;;;;;23.20;99.90;;;;;;5102207;28;19952;-69
2023/06/24 10:13:08;;;;;;;;;;;23.30;99.90;;;;;;5103491;28;19927;-70
2023/06/24 10:15:36;;;;;;;;;;;23.50;99.90;;;;;;5097186;28;19983;-69
2023/06/24 10:18:03;;;;;;;;;;;23.70;99.90;;;;;;5103319;28;20115;-69
2023/06/24 10:20:29;;;;;;;;;;;23.90;99.90;;;;;;5101546;28;20127;-69
2023/06/24 10:22:58;;;;;;;;;;;24.00;99.90;;;;;;5102875;28;20208;-69
2023/06/24 10:25:36;;;;;;;;;;;24.10;99.90;;;;;;5102766;28;20231;-69
2023/06/24 10:28:03;;;;;;;;;;;24.10;99.90;;;;;;5103177;28;19927;-69
2023/06/24 10:30:31;;;;;;;;;;;24.00;99.90;;;;;;5102509;28;19927;-69
2023/06/24 10:32:58;;;;;;;;;;;23.80;99.90;;;;;;5100336;28;20108;-68
2023/06/24 10:35:26;;;;;;;;;;;23.70;99.90;;;;;;5102863;28;19996;-68
2023/06/24 10:37:56;;;;;;;;;;;23.70;99.90;;;;;;5102072;28;19927;-69
2023/06/24 10:40:38;;;;;;;;;;;23.90;99.90;;;;;;5101751;28;19983;-69
2023/06/24 10:43:24;;;;;;;;;;;24.10;99.90;;;;;;5082810;28;20231;-69
2023/06/24 10:45:51;;;;;;;;;;;24.40;99.90;;;;;;5099459;28;20302;-69
2023/06/24 10:48:20;;;;;;;;;;;24.60;99.90;;;;;;5082718;28;19988;-69
2023/06/24 10:50:46;;;;;;;;;;;24.80;99.90;;;;;;5100418;28;19979;-69
2023/06/24 10:53:13;;;;;;;;;;;25.10;99.90;;;;;;5102954;28;20114;-69
2023/06/24 10:55:42;;;;;;;;;;;25.20;99.90;;;;;;5105776;28;19983;-70
2023/06/24 10:58:09;;;;;;;;;;;25.20;99.90;;;;;;5105831;28;19991;-69
2023/06/24 11:00:36;;;;;;;;;;;25.10;99.90;;;;;;5102775;28;19931;-69
2023/06/24 11:03:08;;;;;;;;;;;25.00;99.90;;;;;;5106180;28;19988;-70
2023/06/24 11:05:35;;;;;;;;;;;24.80;99.90;;;;;;5105896;28;19920;-69
2023/06/24 11:08:01;;;;;;;;;;;24.60;99.90;;;;;;5105852;28;20114;-69
2023/06/24 11:10:28;;;;;;;;;;;24.50;99.90;;;;;;5104647;28;19962;-69
2023/06/24 11:12:58;;;;;;;;;;;24.40;99.90;;;;;;5106290;28;19961;-69
2023/06/24 11:15:25;;;;;;;;;;;24.30;99.90;;;;;;5105806;28;19978;-69
2023/06/24 11:17:52;;;;;;;;;;;24.40;99.90;;;;;;5105521;28;19927;-69
2023/06/24 11:20:19;;;;;;;;;;;24.60;99.90;;;;;;5097311;28;20586;-69
2023/06/24 11:22:45;;;;;;;;;;;24.80;99.90;;;;;;5105939;28;20179;-69
2023/06/24 11:25:15;;;;;;;;;;;25.20;99.90;;;;;;5105391;28;19955;-69
2023/06/24 11:27:42;;;;;;;;;;;25.50;99.90;;;;;;5105677;28;19927;-69
2023/06/24 11:30:11;;;;;;;;;;;25.80;99.90;;;;;;5105328;28;19926;-69
2023/06/24 11:32:39;;;;;;;;;;;25.90;99.90;;;;;;5105723;28;19920;-68
2023/06/24 11:35:06;;;;;;;;;;;25.70;99.90;;;;;;5102141;28;19920;-68
2023/06/24 11:37:33;;;;;;;;;;;25.70;99.90;;;;;;5103323;28;19926;-69
2023/06/24 11:40:04;;;;;;;;;;;25.80;99.90;;;;;;5104993;28;19928;-69
2023/06/24 11:42:31;;;;;;;;;;;26.00;99.90;;;;;;5105044;28;19920;-68
2023/06/24 11:45:00;;;;;;;;;;;26.10;99.90;;;;;;5105475;28;19959;-69
2023/06/24 11:47:31;;;;;;;;;;;26.40;99.70;;;;;;5105444;28;19920;-69
2023/06/24 11:50:00;;;;;;;;;;;26.60;97.90;;;;;;5105268;28;19987;-69
2023/06/24 11:52:40;;;;;;;;;;;26.90;97.70;;;;;;5105370;28;20287;-70
2023/06/24 11:55:12;;;;;;;;;;;27.10;98.50;;;;;;5104840;28;19924;-69
2023/06/24 11:57:49;;;;;;;;;;;27.10;97.30;;;;;;5087081;28;19927;-71
2023/06/24 12:00:16;;;;;;;;;;;27.00;97.60;;;;;;5091896;28;20220;-69
2023/06/24 12:02:44;;;;;;;;;;;26.90;97.50;;;;;;5103724;28;19983;-70
2023/06/24 12:05:10;;;;;;;;;;;26.90;97.30;;;;;;5104603;28;19987;-70
2023/06/24 12:07:37;;;;;;;;;;;27.00;97.90;;;;;;5103848;28;19958;-69
2023/06/24 12:10:05;;;;;;;;;;;27.20;97.10;;;;;;5104580;28;19983;-69
2023/06/24 12:12:31;;;;;;;;;;;27.30;96.20;;;;;;5104345;28;19935;-69
2023/06/24 12:14:58;;;;;;;;;;;27.50;95.90;;;;;;5104849;28;19952;-69
2023/06/24 12:17:24;;;;;;;;;;;27.60;95.60;;;;;;5097752;28;19966;-70
2023/06/24 12:19:52;;;;;;;;;;;27.80;96.10;;;;;;5091371;28;19995;-70
2023/06/24 12:22:20;;;;;;;;;;;27.90;96.00;;;;;;5083795;28;20261;-69
2023/06/24 12:24:46;;;;;;;;;;;28.10;96.00;;;;;;5084131;28;19920;-70
2023/06/24 12:27:13;;;;;;;;;;;28.00;95.40;;;;;;5084062;28;19996;-69
2023/06/24 12:29:40;;;;;;;;;;;27.90;94.40;;;;;;5084114;28;20021;-69
2023/06/24 12:32:08;;;;;;;;;;;27.60;95.00;;;;;;5102856;28;19923;-69
2023/06/24 12:34:34;;;;;;;;;;;27.40;94.50;;;;;;5104571;28;19920;-69
2023/06/24 12:37:02;;;;;;;;;;;27.20;94.70;;;;;;5104225;28;19927;-71
2023/06/24 12:39:29;;;;;;;;;;;26.80;94.70;;;;;;5104383;28;19951;-71
2023/06/24 12:41:55;;;;;;;;;;;26.70;94.60;;;;;;5103930;28;19991;-69
2023/06/24 12:44:22;;;;;;;;;;;26.50;94.70;;;;;;5104112;28;20203;-69
2023/06/24 12:46:49;;;;;;;;;;;26.30;95.70;;;;;;5100068;28;20000;-69
2023/06/24 12:49:15;;;;;;;;;;;26.30;96.30;;;;;;5104048;28;20230;-69
2023/06/24 12:51:42;;;;;;;;;;;26.60;95.70;;;;;;5103265;28;19958;-70
2023/06/24 12:54:10;;;;;;;;;;;27.10;94.80;;;;;;5100700;28;20254;-69
2023/06/24 12:56:37;;;;;;;;;;;27.50;94.80;;;;;;5104042;28;19966;-69
2023/06/24 12:59:06;;;;;;;;;;;28.00;94.60;;;;;;5100728;28;19983;-69
2023/06/24 13:01:33;;;;;;;;;;;28.20;93.30;;;;;;5103531;28;19987;-69
2023/06/24 13:04:00;;;;;;;;;;;28.10;92.80;;;;;;5103870;28;19928;-70
2023/06/24 13:06:26;;;;;;;;;;;27.80;92.90;;;;;;5088564;28;19944;-69
2023/06/24 13:08:53;;;;;;;;;;;27.50;93.40;;;;;;5103842;28;20180;-69
2023/06/24 13:11:22;;;;;;;;;;;27.40;93.60;;;;;;5100727;28;19921;-69
2023/06/24 13:13:49;;;;;;;;;;;27.10;93.10;;;;;;5103981;28;19927;-70
2023/06/24 13:16:16;;;;;;;;;;;26.90;93.50;;;;;;5101534;28;19983;-69
2023/06/24 13:18:42;;;;;;;;;;;26.50;93.00;;;;;;5103390;28;19926;-69
2023/06/24 13:21:09;;;;;;;;;;;26.10;93.80;;;;;;5103133;28;20218;-71
2023/06/24 13:23:37;;;;;;;;;;;26.10;93.40;;;;;;5102855;28;19987;-69
2023/06/24 13:26:04;;;;;;;;;;;26.30;93.60;;;;;;5103031;28;19921;-69
2023/06/24 13:28:32;;;;;;;;;;;26.60;94.10;;;;;;5103643;28;19959;-70
2023/06/24 13:30:58;;;;;;;;;;;27.00;94.70;;;;;;5103279;28;19920;-69
2023/06/24 13:33:25;;;;;;;;;;;27.20;93.80;;;;;;5103529;28;20224;-69
2023/06/24 13:35:52;;;;;;;;;;;27.60;93.90;;;;;;5103380;28;19924;-69
2023/06/24 13:38:19;;;;;;;;;;;28.00;93.10;;;;;;5103833;28;20092;-69
2023/06/24 13:40:45;;;;;;;;;;;28.60;92.30;;;;;;5102751;28;19963;-68
2023/06/24 13:43:12;;;;;;;;;;;29.00;91.60;;;;;;5103699;28;19960;-69
2023/06/24 13:45:40;;;;;;;;;;;29.10;90.90;;;;;;5103519;28;19920;-70
2023/06/24 13:48:06;;;;;;;;;;;28.80;89.50;;;;;;5103414;28;19920;-69
2023/06/24 13:50:33;;;;;;;;;;;28.40;88.90;;;;;;5102891;28;19979;-72
2023/06/24 13:53:00;;;;;;;;;;;28.30;90.70;;;;;;5103040;28;19955;-68
2023/06/24 13:55:26;;;;;;;;;;;28.50;90.30;;;;;;5092720;28;19983;-68
2023/06/24 13:57:53;;;;;;;;;;;28.70;90.00;;;;;;5100395;28;19963;-67
2023/06/24 14:00:20;;;;;;;;;;;29.00;90.10;;;;;;5102249;28;19935;-69
2023/06/24 14:02:50;;;;;;;;;;;29.20;87.70;;;;;;5101250;28;19955;-68
2023/06/24 14:05:16;;;;;;;;;;;29.20;88.20;;;;;;5102495;28;19983;-68
2023/06/24 14:07:43;;;;;;;;;;;29.40;86.30;;;;;;5102888;28;20274;-69
2023/06/24 14:10:10;;;;;;;;;;;29.60;85.50;;;;;;5102611;28;19983;-69
2023/06/24 14:12:37;;;;;;;;;;;29.90;85.60;;;;;;5086410;28;20231;-69
2023/06/24 14:15:04;;;;;;;;;;;30.00;84.90;;;;;;5084452;28;20151;-69
2023/06/24 14:17:30;;;;;;;;;;;30.10;84.30;;;;;;5100492;28;19955;-68
2023/06/24 14:19:58;;;;;;;;;;;30.30;84.20;;;;;;5102854;28;19920;-68